createdAt,value
2018-12-03T00:02:23.022Z,99701.00
2018-12-03T00:04:52.354Z,99709.00
2018-12-03T00:07:21.717Z,99707.00
2018-12-03T00:09:51.062Z,99705.00
2018-12-03T00:12:20.424Z,99700.00
2018-12-03T00:14:49.736Z,99709.00
2018-12-03T00:20:45.323Z,99687.38
2018-12-03T00:23:35.531Z,99667.02
2018-12-03T00:26:19.055Z,99691.31
2018-12-03T00:29:09.592Z,99689.39
2018-12-03T00:31:41.110Z,99692.98
2018-12-03T00:34:50.626Z,99691.68
2018-12-03T00:37:42.062Z,99693.83
2018-12-03T00:40:24.741Z,99671.78
2018-12-03T00:43:15.296Z,99669.20
2018-12-03T00:45:57.528Z,99665.44
2018-12-03T00:48:47.769Z,99661.48
2018-12-03T00:51:31.675Z,99659.72
2018-12-03T01:00:18.549Z,99674.50
2018-12-03T01:03:09.036Z,99665.66
2018-12-03T01:05:51.937Z,99666.22
2018-12-03T01:08:42.120Z,99674.12
2018-12-03T01:11:23.856Z,99688.87
2018-12-03T01:14:06.421Z,99693.52
2018-12-03T01:16:49.756Z,99695.31
2018-12-03T01:19:39.940Z,99664.70
2018-12-03T01:22:22.867Z,99693.90
2018-12-03T01:25:13.340Z,99661.48
2018-12-03T01:27:44.999Z,99690.69
2018-12-03T01:30:35.403Z,99672.31
2018-12-03T01:33:26.573Z,99678.94
2018-12-03T01:36:09.403Z,99681.79
2018-12-03T01:38:41.819Z,99678.11
2018-12-03T01:41:13.162Z,99674.34
2018-12-03T01:43:44.458Z,99671.59
2018-12-03T01:46:34.962Z,99661.16
2018-12-03T01:49:20.251Z,99655.19
2018-12-03T01:52:10.525Z,99680.55
2018-12-03T01:54:53.566Z,99651.25
2018-12-03T01:57:46.266Z,99676.57
2018-12-03T02:00:30.019Z,99675.26
2018-12-03T02:03:20.492Z,99646.42
2018-12-03T02:06:03.607Z,99640.56
2018-12-03T02:09:12.945Z,99673.14
2018-12-03T02:11:58.063Z,99641.95
2018-12-03T02:14:48.966Z,99663.81
2018-12-03T02:17:33.714Z,99638.98
2018-12-03T02:20:24.076Z,99642.20
2018-12-03T02:23:09.580Z,99656.19
2018-12-03T02:25:41.181Z,99653.00
2018-12-03T02:28:31.417Z,99612.27
2018-12-03T02:31:16.468Z,99620.41
2018-12-03T02:33:59.164Z,99648.96
2018-12-03T02:36:49.734Z,99643.92
2018-12-03T02:39:33.244Z,99646.34
2018-12-03T02:42:23.525Z,99619.75
2018-12-03T02:45:06.633Z,99617.02
2018-12-03T02:54:10.890Z,99636.02
2018-12-03T02:56:53.897Z,99616.79
2018-12-03T02:59:38.296Z,99635.84
2018-12-03T03:02:28.786Z,99611.90
2018-12-03T03:08:13.862Z,99628.53
2018-12-03T03:10:59.009Z,99612.36
2018-12-03T03:13:49.241Z,99609.64
2018-12-03T03:16:33.237Z,99632.41
2018-12-03T03:19:23.601Z,99630.00
2018-12-03T03:22:08.639Z,99628.73
2018-12-03T03:25:20.041Z,99600.86
2018-12-03T03:28:18.936Z,99597.55
2018-12-03T03:30:40.269Z,99628.95
2018-12-03T03:33:23.427Z,99600.41
2018-12-03T03:36:13.959Z,99620.34
2018-12-03T03:38:58.240Z,99617.88
2018-12-03T03:41:48.802Z,99592.90
2018-12-03T03:44:40.138Z,99590.64
2018-12-03T03:47:23.698Z,99611.75
2018-12-03T03:53:05.147Z,99613.59
2018-12-03T03:55:56.302Z,99609.63
2018-12-03T03:58:39.663Z,99610.33
2018-12-03T04:04:21.087Z,99594.19
2018-12-03T04:10:44.613Z,99602.77
2018-12-03T04:13:54.914Z,99572.36
2018-12-03T04:16:39.765Z,99604.98
2018-12-03T04:23:17.333Z,99566.02
2018-12-03T04:25:54.781Z,99593.62
2018-12-03T04:31:22.208Z,99563.02
2018-12-03T04:51:08.884Z,99555.19
2018-12-03T04:59:57.145Z,99562.39
2018-12-03T05:11:53.702Z,99562.30
2018-12-03T05:17:49.108Z,99554.63
2018-12-03T05:26:53.512Z,99550.77
2018-12-03T05:29:42.609Z,99521.61
2018-12-03T05:32:25.964Z,99546.48
2018-12-03T05:35:35.970Z,99553.06
2018-12-03T05:38:19.197Z,99550.50
2018-12-03T05:41:12.588Z,99552.66
2018-12-03T05:43:55.896Z,99523.50
2018-12-03T05:46:46.362Z,99531.05
2018-12-03T05:49:29.625Z,99529.33
2018-12-03T05:52:20.063Z,99523.44
2018-12-03T05:55:04.125Z,99552.80
2018-12-03T05:57:54.253Z,99520.81
2018-12-03T06:00:37.706Z,99524.56
2018-12-03T06:03:27.901Z,99553.13
2018-12-03T06:05:59.547Z,99551.98
2018-12-03T06:08:33.718Z,99558.13
2018-12-03T06:11:23.830Z,99530.14
2018-12-03T06:14:14.213Z,99536.16
2018-12-03T06:17:00.665Z,99556.87
2018-12-03T06:19:51.174Z,99536.23
2018-12-03T06:22:44.677Z,99561.41
2018-12-03T06:25:48.975Z,99570.44
2018-12-03T06:28:19.842Z,99546.41
2018-12-03T06:31:10.034Z,99537.67
2018-12-03T06:33:53.420Z,99570.05
2018-12-03T06:42:20.760Z,99577.30
2018-12-03T06:45:12.885Z,99547.48
2018-12-03T06:48:04.868Z,99542.70
2018-12-03T06:53:16.792Z,99577.62
2018-12-03T06:56:20.637Z,99548.48
2018-12-03T06:58:50.920Z,99560.19
2018-12-03T07:01:41.305Z,99564.14
2018-12-03T07:04:23.380Z,99569.77
2018-12-03T07:07:13.492Z,99569.86
2018-12-03T07:09:56.591Z,99572.59
2018-12-03T07:12:27.772Z,99599.30
2018-12-03T07:15:24.557Z,99582.78
2018-12-03T07:18:07.865Z,99608.07
2018-12-03T07:20:57.970Z,99613.62
2018-12-03T07:23:40.986Z,99580.55
2018-12-03T07:29:52.898Z,99590.09
2018-12-03T07:32:33.177Z,99594.33
2018-12-03T07:35:43.425Z,99598.08
2018-12-03T07:38:26.348Z,99620.05
2018-12-03T07:41:35.930Z,99626.27
2018-12-03T07:44:18.786Z,99599.31
2018-12-03T07:47:09.416Z,99615.20
2018-12-03T07:49:59.694Z,99604.98
2018-12-03T07:53:09.020Z,99606.83
2018-12-03T07:55:52.125Z,99636.27
2018-12-03T07:58:42.536Z,99613.58
2018-12-03T08:01:24.349Z,99642.80
2018-12-03T08:04:05.847Z,99644.25
2018-12-03T08:06:47.993Z,99616.65
2018-12-03T08:09:38.069Z,99614.92
2018-12-03T08:12:21.599Z,99611.45
2018-12-03T08:15:30.837Z,99627.58
2018-12-03T08:18:09.981Z,99647.66
2018-12-03T08:21:19.227Z,99633.45
2018-12-03T08:24:14.087Z,99663.30
2018-12-03T08:27:01.006Z,99634.03
2018-12-03T08:29:54.914Z,99641.80
2018-12-03T08:32:37.334Z,99661.66
2018-12-03T08:35:30.183Z,99646.09
2018-12-03T08:38:12.782Z,99650.84
2018-12-03T08:41:06.288Z,99649.77
2018-12-03T08:46:39.777Z,99649.75
2018-12-03T08:49:30.129Z,99676.57
2018-12-03T08:52:13.251Z,99678.23
2018-12-03T08:58:25.803Z,99647.70
2018-12-03T09:01:15.119Z,99653.12
2018-12-03T09:04:08.330Z,99652.63
2018-12-03T09:06:51.364Z,99678.26
2018-12-03T09:09:43.871Z,99658.29
2018-12-03T09:12:26.747Z,99657.83
2018-12-03T09:15:17.087Z,99660.77
2018-12-03T09:18:00.006Z,99661.93
2018-12-03T09:20:50.059Z,99676.68
2018-12-03T09:23:32.584Z,99675.66
2018-12-03T09:26:22.660Z,99652.95
2018-12-03T09:29:05.174Z,99652.71
2018-12-03T09:31:55.557Z,99679.46
2018-12-03T09:34:38.230Z,99654.48
2018-12-03T09:37:29.548Z,99663.23
2018-12-03T09:40:15.720Z,99687.66
2018-12-03T09:43:05.992Z,99691.55
2018-12-03T09:48:40.783Z,99672.44
2018-12-03T09:51:50.098Z,99698.63
2018-12-03T09:54:36.252Z,99673.73
2018-12-03T09:57:26.657Z,99680.73
2018-12-03T10:00:11.907Z,99705.89
2018-12-03T10:03:04.582Z,99680.89
2018-12-03T10:05:47.744Z,99683.19
2018-12-03T10:08:37.805Z,99679.39
2018-12-03T10:11:19.984Z,99672.66
2018-12-03T10:14:14.997Z,99675.34
2018-12-03T10:16:54.334Z,99697.56
2018-12-03T10:22:50.922Z,99676.41
2018-12-03T10:25:41.245Z,99692.16
2018-12-03T10:31:26.240Z,99658.80
2018-12-03T10:34:36.989Z,99670.53
2018-12-03T10:37:20.375Z,99664.90
2018-12-03T10:40:29.550Z,99660.89
2018-12-03T10:43:12.314Z,99656.44
2018-12-03T10:46:03.377Z,99690.24
2018-12-03T10:48:46.723Z,99683.66
2018-12-03T10:51:29.629Z,99667.78
2018-12-03T10:54:19.710Z,99691.16
2018-12-03T10:57:03.574Z,99699.22
2018-12-03T10:59:55.719Z,99698.20
2018-12-03T11:02:57.810Z,99688.11
2018-12-03T11:06:06.770Z,99702.95
2018-12-03T11:08:48.785Z,99700.21
2018-12-03T11:14:28.519Z,99701.59
2018-12-03T11:17:18.882Z,99675.80
2018-12-03T11:20:01.004Z,99702.58
2018-12-03T11:22:51.148Z,99701.02
2018-12-03T11:25:27.779Z,99703.98
2018-12-03T11:31:40.189Z,99695.03
2018-12-03T11:34:23.440Z,99679.23
2018-12-03T11:37:32.611Z,99675.87
2018-12-03T11:40:28.181Z,99699.16
2018-12-03T11:43:10.863Z,99672.33
2018-12-03T11:46:01.132Z,99699.48
2018-12-03T11:48:32.354Z,99703.45
2018-12-03T11:54:24.692Z,99678.85
2018-12-03T11:57:15.029Z,99666.21
2018-12-03T11:59:57.469Z,99667.07
2018-12-03T12:02:47.819Z,99682.80
2018-12-03T12:05:31.043Z,99661.41
2018-12-03T12:08:21.194Z,99655.34
2018-12-03T12:11:03.593Z,99657.98
2018-12-03T12:13:55.672Z,99656.33
2018-12-03T12:16:39.572Z,99654.67
2018-12-03T12:19:29.685Z,99656.41
2018-12-03T12:22:12.147Z,99677.66
2018-12-03T12:28:07.200Z,99680.91
2018-12-03T12:30:57.600Z,99660.45
2018-12-03T12:33:40.425Z,99659.84
2018-12-03T12:36:30.747Z,99686.91
2018-12-03T12:39:01.960Z,99687.89
2018-12-03T12:41:52.034Z,99663.92
2018-12-03T12:44:37.404Z,99685.05
2018-12-03T12:47:27.800Z,99662.39
2018-12-03T12:50:11.799Z,99683.78
2018-12-03T12:53:01.901Z,99679.83
2018-12-03T12:55:44.486Z,99682.45
2018-12-03T12:58:34.588Z,99657.59
2018-12-03T13:01:17.400Z,99680.41
2018-12-03T13:06:44.991Z,99691.86
2018-12-03T13:09:35.133Z,99666.98
2018-12-03T13:12:25.151Z,99667.47
2018-12-03T13:15:09.562Z,99667.46
2018-12-03T13:17:59.939Z,99659.02
2018-12-03T13:20:43.469Z,99659.34
2018-12-03T13:26:42.267Z,99680.81
2018-12-03T13:29:32.722Z,99673.35
2018-12-03T13:32:22.831Z,99649.41
2018-12-03T13:35:13.816Z,99642.66
2018-12-03T13:37:56.619Z,99650.06
2018-12-03T13:40:39.228Z,99653.95
2018-12-03T13:43:29.335Z,99660.22
2018-12-03T13:46:11.464Z,99659.92
2018-12-03T13:49:01.529Z,99667.58
2018-12-03T13:51:48.070Z,99672.34
2018-12-03T13:54:38.404Z,99668.66
2018-12-03T13:57:20.739Z,99698.45
2018-12-03T14:00:29.717Z,99670.88
2018-12-03T14:03:13.404Z,99683.21
2018-12-03T14:06:41.776Z,99666.91
2018-12-03T14:09:44.768Z,99695.87
2018-12-03T14:12:58.636Z,99700.20
2018-12-03T14:16:00.427Z,99685.20
2018-12-03T14:18:56.740Z,99715.97
2018-12-03T14:21:51.292Z,99692.44
2018-12-03T14:24:41.955Z,99682.50
2018-12-03T14:27:24.019Z,99678.02
2018-12-03T14:30:15.010Z,99710.94
2018-12-03T14:32:58.743Z,99682.02
2018-12-03T14:35:41.049Z,99711.07
2018-12-03T14:38:12.173Z,99707.94
2018-12-03T14:40:43.372Z,99707.94
2018-12-03T14:43:33.433Z,99684.23
2018-12-03T14:46:15.821Z,99714.12
2018-12-03T14:48:47.037Z,99714.01
2018-12-03T14:51:37.140Z,99694.05
2018-12-03T14:54:08.319Z,99713.39
2018-12-03T14:56:58.461Z,99717.82
2018-12-03T14:59:43.277Z,99697.63
2018-12-03T15:02:33.764Z,99710.19
2018-12-03T15:05:05.094Z,99717.11
2018-12-03T15:08:09.289Z,99711.19
2018-12-03T15:10:39.426Z,99709.25
2018-12-03T15:13:29.532Z,99705.72
2018-12-03T15:16:12.251Z,99684.39
2018-12-03T15:19:02.354Z,99690.27
2018-12-03T15:21:44.587Z,99692.34
2018-12-03T15:24:34.981Z,99675.27
2018-12-03T15:27:17.929Z,99704.14
2018-12-03T15:30:09.907Z,99679.43
2018-12-03T15:32:52.602Z,99704.45
2018-12-03T15:35:23.920Z,99709.05
2018-12-03T15:38:14.027Z,99678.84
2018-12-03T15:40:57.070Z,99706.58
2018-12-03T15:43:47.803Z,99708.47
2018-12-03T15:46:30.270Z,99685.52
2018-12-03T15:49:20.329Z,99681.22
2018-12-03T15:54:58.137Z,99709.81
2018-12-03T15:57:48.238Z,99679.91
2018-12-03T16:00:30.460Z,99704.05
2018-12-03T16:03:20.850Z,99703.19
2018-12-03T16:06:03.705Z,99682.01
2018-12-03T16:08:35.338Z,99709.44
2018-12-03T16:11:25.743Z,99682.66
2018-12-03T16:14:16.169Z,99679.42
2018-12-03T16:16:58.391Z,99709.19
2018-12-03T16:19:48.428Z,99686.75
2018-12-03T16:22:30.989Z,99709.95
2018-12-03T16:25:21.065Z,99683.88
2018-12-03T16:28:03.655Z,99682.31
2018-12-03T16:30:53.866Z,99687.39
2018-12-03T16:33:41.852Z,99714.58
2018-12-03T16:36:24.737Z,99688.70
2018-12-03T16:39:15.229Z,99718.26
2018-12-03T16:41:57.457Z,99696.80
2018-12-03T16:44:47.520Z,99709.24
2018-12-03T16:47:18.658Z,99718.52
2018-12-03T16:50:10.355Z,99715.48
2018-12-03T16:52:53.365Z,99689.84
2018-12-03T16:55:43.419Z,99685.17
2018-12-03T16:58:26.066Z,99701.75
2018-12-03T17:00:57.262Z,99730.38
2018-12-03T17:06:35.789Z,99704.53
2018-12-03T17:09:26.100Z,99704.02
2018-12-03T17:15:00.488Z,99704.53
2018-12-03T17:17:50.891Z,99721.84
2018-12-03T17:26:55.871Z,99720.40
2018-12-03T17:29:27.496Z,99722.01
2018-12-03T17:35:13.717Z,99729.80
2018-12-03T17:37:56.127Z,99729.10
2018-12-03T17:40:27.456Z,99727.06
2018-12-03T17:43:17.833Z,99700.23
2018-12-03T17:46:08.194Z,99699.44
2018-12-03T17:52:26.102Z,99725.41
2018-12-03T17:55:16.897Z,99726.89
2018-12-03T18:01:04.114Z,99723.16
2018-12-03T18:03:46.342Z,99700.05
2018-12-03T18:09:50.861Z,99723.88
2018-12-03T18:12:40.983Z,99696.02
2018-12-03T18:15:27.487Z,99720.81
2018-12-03T18:18:11.396Z,99720.22
2018-12-03T18:21:01.526Z,99691.92
2018-12-03T18:23:48.321Z,99695.09
2018-12-03T18:26:38.523Z,99683.08
2018-12-03T18:29:22.894Z,99685.88
2018-12-03T18:32:14.138Z,99682.45
2018-12-03T18:37:59.008Z,99712.58
2018-12-03T18:41:35.087Z,99714.41
2018-12-03T18:43:58.472Z,99688.47
2018-12-03T18:46:30.970Z,99708.80
2018-12-03T18:49:44.836Z,99709.91
2018-12-03T18:53:14.872Z,99687.51
2018-12-03T18:55:59.639Z,99676.63
2018-12-03T19:02:06.133Z,99692.38
2018-12-03T19:04:57.456Z,99723.16
2018-12-03T19:07:40.933Z,99692.12
2018-12-03T19:10:31.406Z,99722.02
2018-12-03T19:13:14.209Z,99690.75
2018-12-03T19:16:04.580Z,99690.85
2018-12-03T19:18:47.404Z,99680.64
2018-12-03T19:21:37.490Z,99682.86
2018-12-03T19:24:19.883Z,99683.24
2018-12-03T19:27:10.309Z,99685.38
2018-12-03T19:29:53.711Z,99703.52
2018-12-03T19:32:43.893Z,99676.84
2018-12-03T19:35:26.766Z,99701.26
2018-12-03T19:38:19.297Z,99662.47
2018-12-03T19:43:58.092Z,99671.59
2018-12-03T19:46:49.075Z,99702.47
2018-12-03T19:49:32.268Z,99674.48
2018-12-03T19:55:24.682Z,99706.80
2018-12-03T19:58:12.297Z,99701.78
2018-12-03T20:01:02.562Z,99709.52
2018-12-03T20:03:36.727Z,99707.07
2018-12-03T20:06:27.395Z,99679.80
2018-12-03T20:09:10.040Z,99721.59
2018-12-03T20:21:28.499Z,99706.23
2018-12-03T20:24:22.191Z,99730.95
2018-12-03T20:30:51.732Z,99702.64
2018-12-03T20:33:38.180Z,99734.11
2018-12-03T20:39:56.553Z,99737.36
2018-12-03T20:46:31.827Z,99728.70
2018-12-03T20:49:36.183Z,99730.64
2018-12-03T20:58:53.630Z,99754.88
2018-12-03T21:01:38.115Z,99768.48
2018-12-03T21:08:01.275Z,99789.65
2018-12-03T21:10:51.841Z,99801.91
2018-12-03T21:16:50.329Z,99813.58
2018-12-03T21:19:41.494Z,99821.98
2018-12-03T21:22:24.623Z,99832.92
2018-12-03T21:25:15.090Z,99867.48
2018-12-03T21:27:57.840Z,99877.95
2018-12-03T21:30:48.443Z,99855.41
2018-12-03T21:33:32.107Z,99862.09
2018-12-03T21:36:28.892Z,99893.18
2018-12-03T21:39:13.487Z,99882.09
2018-12-03T21:41:55.971Z,99883.19
2018-12-03T21:44:46.607Z,99914.41
2018-12-03T21:47:33.039Z,99893.90
2018-12-03T21:50:23.207Z,99905.23
2018-12-03T21:53:52.878Z,99914.59
2018-12-03T21:56:35.408Z,99928.36
2018-12-03T21:59:26.481Z,99946.16
2018-12-03T22:02:09.917Z,99929.84
2018-12-03T22:05:00.087Z,99932.86
2018-12-03T22:07:42.613Z,99966.72
2018-12-03T22:10:32.956Z,99949.48
2018-12-03T22:13:18.195Z,99938.78
2018-12-03T22:16:08.577Z,99972.86
2018-12-03T22:18:51.794Z,99953.55
2018-12-03T22:21:42.246Z,99988.13
2018-12-03T22:24:25.679Z,99979.71
2018-12-03T22:27:16.107Z,99991.02
2018-12-03T22:30:01.578Z,100020.47
2018-12-03T22:33:10.878Z,100007.22
2018-12-03T22:35:54.001Z,100011.77
2018-12-03T22:38:44.389Z,100016.05
2018-12-03T22:41:26.832Z,100016.02
2018-12-03T22:44:17.010Z,100047.55
2018-12-03T22:46:48.792Z,100060.61
2018-12-03T22:49:41.930Z,100067.90
2018-12-03T22:52:32.206Z,100073.41
2018-12-03T22:55:22.402Z,100078.21
2018-12-03T22:58:05.639Z,100083.95
2018-12-03T23:01:14.939Z,100064.30
2018-12-03T23:03:57.461Z,100098.13
2018-12-03T23:06:47.850Z,100082.16
2018-12-03T23:09:30.700Z,100082.96
2018-12-03T23:12:20.804Z,100095.36
2018-12-03T23:15:03.755Z,100095.92
2018-12-03T23:17:53.787Z,100103.92
2018-12-03T23:20:25.353Z,100135.91
2018-12-03T23:23:15.722Z,100138.81
2018-12-03T23:25:58.841Z,100141.63
2018-12-03T23:28:30.131Z,100152.45
2018-12-03T23:31:20.213Z,100155.98
2018-12-03T23:34:02.836Z,100161.70
2018-12-03T23:36:53.383Z,100165.12
2018-12-03T23:39:35.858Z,100165.88
2018-12-03T23:42:26.526Z,100152.56
2018-12-03T23:45:09.824Z,100140.69
2018-12-03T23:48:00.170Z,100174.18
2018-12-03T23:50:42.739Z,100146.63
2018-12-03T23:53:27.099Z,100190.50
2018-12-03T23:56:17.093Z,100161.64
2018-12-03T23:58:59.265Z,100165.16
